Terminal Aerodrome Forecast
Issued by NWS

Home | Current Version | Previous Version | Text Only | Print | Product List | Glossary On
Versions: 1 2 3 4 5 6 7 8 9 10 11 12 13 14 15 16 17 18 19 20 21 22 23 24 25 26 27 28 29 30 31 32 33 34 35 36 37 38 39
000
FTUS42 KRAH 302344 CCA
TAFRWI
TAF COR
KRWI 302344Z 3100/3124 13007KT P6SM FEW060 OVC090
     FM310700 15008KT P6SM SCT035 BKN100
     FM311000 17011G17KT 3SM SHRA BR BKN012 OVC060
      TEMPO 3110/3113 VRB15G25KT 2SM +TSRA BR SCT008 OVC025CB
     FM311600 21013G23KT P6SM SCT030 BKN050 PROB30 3118/3124
      VRB20G30KT 2SM TSRA BKN025CB=

USA.gov is the U.S. government's official web portal to all federal, state and local government web resources and services.